createdAt,value
2022-10-22T00:00:07.174Z,99.9
2022-10-22T00:04:11.210Z,99.9
2022-10-22T00:06:13.233Z,99.9
2022-10-22T00:08:18.313Z,99.9
2022-10-22T00:10:20.318Z,99.9
2022-10-22T00:12:22.357Z,99.9
2022-10-22T00:16:41.560Z,99.9
2022-10-22T00:24:52.698Z,99.9
2022-10-22T00:26:54.702Z,99.9
2022-10-22T00:28:56.728Z,99.9
2022-10-22T00:30:58.745Z,99.9
2022-10-22T00:35:05.848Z,99.9
2022-10-22T00:41:11.911Z,99.9
2022-10-22T00:43:13.934Z,99.9
2022-10-22T00:47:17.972Z,99.9
2022-10-22T00:49:23.080Z,99.9
2022-10-22T00:51:25.073Z,99.9
2022-10-22T00:53:27.100Z,99.9
2022-10-22T00:57:31.139Z,99.9
2022-10-22T00:59:33.171Z,99.9
2022-10-22T01:01:35.211Z,99.9
2022-10-22T01:03:40.263Z,99.9
2022-10-22T01:05:42.319Z,99.9
2022-10-22T01:07:44.305Z,99.9
2022-10-22T01:08:46.910Z,99.9
2022-10-22T01:10:48.891Z,99.9
2022-10-22T01:12:50.939Z,99.9
2022-10-22T01:14:52.971Z,99.9
2022-10-22T01:16:58.036Z,99.9
2022-10-22T01:19:00.083Z,99.9
2022-10-22T01:21:02.082Z,99.9
2022-10-22T01:23:04.129Z,99.9
2022-10-22T01:25:06.141Z,99.9
2022-10-22T01:29:10.212Z,99.9
2022-10-22T01:31:15.263Z,99.9
2022-10-22T01:37:21.304Z,99.9
2022-10-22T01:39:23.333Z,99.9
2022-10-22T01:41:25.361Z,99.9
2022-10-22T01:43:27.386Z,99.9
2022-10-22T01:45:32.456Z,99.9
2022-10-22T01:49:36.507Z,99.9
2022-10-22T01:51:38.522Z,99.9
2022-10-22T01:53:40.594Z,99.9
2022-10-22T01:55:42.571Z,99.9
2022-10-22T01:57:44.575Z,99.9
2022-10-22T02:01:51.682Z,99.9
2022-10-22T02:03:53.699Z,99.9
2022-10-22T02:06:58.304Z,99.9
2022-10-22T02:11:02.374Z,99.9
2022-10-22T02:17:11.458Z,99.9
2022-10-22T02:19:13.495Z,99.9
2022-10-22T02:23:17.527Z,99.9
2022-10-22T02:25:19.568Z,99.9
2022-10-22T02:29:26.672Z,99.9
2022-10-22T02:33:30.710Z,99.9
2022-10-22T02:35:32.752Z,99.9
2022-10-22T02:37:34.765Z,99.9
2022-10-22T02:41:41.860Z,99.9
2022-10-22T02:43:43.878Z,99.9
2022-10-22T02:45:45.871Z,99.9
2022-10-22T02:51:51.955Z,99.9
2022-10-22T02:53:53.948Z,99.9
2022-10-22T02:55:59.031Z,99.9
2022-10-22T02:58:01.038Z,99.9
2022-10-22T03:00:03.100Z,99.9
2022-10-22T03:05:11.151Z,99.9
2022-10-22T03:13:22.282Z,99.9
2022-10-22T03:15:24.326Z,99.9
2022-10-22T03:17:26.311Z,99.9
2022-10-22T03:19:28.309Z,99.9
2022-10-22T03:21:30.300Z,99.9
2022-10-22T03:23:35.402Z,99.9
2022-10-22T03:27:39.690Z,99.9
2022-10-22T03:29:41.413Z,99.9
2022-10-22T03:31:43.433Z,99.9
2022-10-22T03:33:45.441Z,99.9
2022-10-22T03:35:47.464Z,99.9
2022-10-22T03:37:52.532Z,99.9
2022-10-22T03:39:54.528Z,99.9
2022-10-22T03:54:11.681Z,99.9
2022-10-22T03:56:13.676Z,99.9
2022-10-22T03:58:30.292Z,99.9
2022-10-22T04:00:32.363Z,99.9
2022-10-22T04:02:34.332Z,99.9
2022-10-22T04:06:41.415Z,99.9
2022-10-22T04:08:43.505Z,99.9
2022-10-22T04:10:45.433Z,99.9
2022-10-22T04:20:58.593Z,99.9
2022-10-22T04:25:02.692Z,99.9
2022-10-22T04:27:04.611Z,99.9
2022-10-22T04:29:06.964Z,99.9
2022-10-22T04:31:08.641Z,99.9
2022-10-22T04:33:13.729Z,99.9
2022-10-22T04:35:15.824Z,99.9
2022-10-22T04:39:19.779Z,99.9
2022-10-22T04:41:21.789Z,99.9
2022-10-22T04:43:23.782Z,99.9
2022-10-22T04:45:25.819Z,99.9
2022-10-22T04:49:32.899Z,99.9
2022-10-22T04:51:34.896Z,99.9
2022-10-22T04:52:37.412Z,99.9
2022-10-22T04:56:41.453Z,99.9
2022-10-22T04:58:43.459Z,99.9
2022-10-22T05:00:48.626Z,99.9
2022-10-22T05:04:52.559Z,99.9
2022-10-22T05:06:54.576Z,99.9
2022-10-22T05:08:56.616Z,99.9
2022-10-22T05:10:58.609Z,99.9
2022-10-22T05:13:00.628Z,99.9
2022-10-22T05:15:05.708Z,99.9
2022-10-22T05:17:07.707Z,99.9
2022-10-22T05:19:09.738Z,99.9
2022-10-22T05:21:11.761Z,99.9
2022-10-22T05:23:13.759Z,99.9
2022-10-22T05:25:15.777Z,99.9
2022-10-22T05:29:22.860Z,99.9
2022-10-22T05:31:24.867Z,99.9
2022-10-22T05:33:26.890Z,99.9
2022-10-22T05:35:28.896Z,99.9
2022-10-22T05:37:30.918Z,99.9
2022-10-22T05:39:32.932Z,99.9
2022-10-22T05:41:34.952Z,99.9
2022-10-22T05:43:40.013Z,99.9
2022-10-22T05:45:42.049Z,99.9
2022-10-22T05:47:44.048Z,99.9
2022-10-22T05:48:46.569Z,99.9
2022-10-22T05:50:48.595Z,99.9
2022-10-22T05:52:50.599Z,99.9
2022-10-22T05:54:52.621Z,99.9
2022-10-22T05:56:57.687Z,99.9
2022-10-22T05:58:59.792Z,99.9
2022-10-22T06:09:09.803Z,99.9
2022-10-22T06:11:14.851Z,99.9
2022-10-22T06:13:16.859Z,99.9
2022-10-22T06:15:18.860Z,99.9
2022-10-22T06:19:22.907Z,99.9
2022-10-22T06:21:24.904Z,99.9
2022-10-22T06:23:26.942Z,99.9
2022-10-22T06:25:31.989Z,99.9
2022-10-22T06:27:34.025Z,99.9
2022-10-22T06:29:36.007Z,99.9
2022-10-22T06:31:38.033Z,99.9
2022-10-22T06:33:40.064Z,99.9
2022-10-22T06:35:42.055Z,99.9
2022-10-22T06:37:44.078Z,99.9
2022-10-22T06:39:49.170Z,99.9
2022-10-22T06:41:51.167Z,99.9
2022-10-22T06:43:53.212Z,99.9
2022-10-22T06:44:55.755Z,99.9
2022-10-22T06:46:57.742Z,99.9
2022-10-22T06:48:59.768Z,99.9
2022-10-22T06:51:01.781Z,99.9
2022-10-22T06:53:07.002Z,99.9
2022-10-22T06:55:08.856Z,99.9
2022-10-22T06:59:12.903Z,99.9
2022-10-22T07:01:14.979Z,99.9
2022-10-22T07:03:16.908Z,99.9
2022-10-22T07:07:24.011Z,99.9
2022-10-22T07:15:32.077Z,99.9
2022-10-22T07:21:41.172Z,99.9
2022-10-22T07:23:43.215Z,99.9
2022-10-22T07:31:51.268Z,99.9
2022-10-22T07:33:53.298Z,99.9
2022-10-22T07:35:58.379Z,99.9
2022-10-22T07:38:00.389Z,99.9
2022-10-22T07:40:03.892Z,99.9
2022-10-22T07:42:25.149Z,99.9
2022-10-22T07:44:27.113Z,99.9
2022-10-22T07:46:29.119Z,99.9
2022-10-22T07:48:34.190Z,99.9
2022-10-22T07:50:36.233Z,99.9
2022-10-22T07:52:38.543Z,99.9
2022-10-22T07:54:40.247Z,99.9
2022-10-22T07:56:42.387Z,99.9
2022-10-22T07:58:44.270Z,99.9
2022-10-22T08:00:46.289Z,99.9
2022-10-22T08:02:51.426Z,99.9
2022-10-22T08:04:53.372Z,99.9
2022-10-22T08:06:55.387Z,99.9
2022-10-22T08:08:57.483Z,99.9
2022-10-22T08:10:59.437Z,99.9
2022-10-22T08:13:01.458Z,99.9
2022-10-22T08:15:03.486Z,99.9
2022-10-22T08:17:08.532Z,99.9
2022-10-22T08:19:10.574Z,99.9
2022-10-22T08:21:12.577Z,99.9
2022-10-22T08:23:14.592Z,99.9
2022-10-22T08:25:16.602Z,99.9
2022-10-22T08:27:18.615Z,99.9
2022-10-22T08:29:20.604Z,99.9
2022-10-22T08:31:25.696Z,99.9
2022-10-22T08:33:27.717Z,99.9
2022-10-22T08:35:29.701Z,99.9
2022-10-22T08:38:34.288Z,99.9
2022-10-22T08:40:36.333Z,99.9
2022-10-22T08:42:38.522Z,99.9
2022-10-22T08:44:43.367Z,99.9
2022-10-22T08:46:45.360Z,99.9
2022-10-22T08:48:47.374Z,99.9
2022-10-22T08:50:49.384Z,99.9
2022-10-22T08:52:51.370Z,99.9
2022-10-22T08:54:53.416Z,99.9
2022-10-22T08:56:56.899Z,99.9
2022-10-22T08:59:01.928Z,99.9
2022-10-22T09:01:03.937Z,99.9
2022-10-22T09:03:05.930Z,99.9
2022-10-22T09:05:11.513Z,99.9
2022-10-22T09:07:09.941Z,99.9
2022-10-22T09:09:12.053Z,99.9
2022-10-22T09:11:13.948Z,99.9
2022-10-22T09:13:19.031Z,99.9
2022-10-22T09:15:21.011Z,99.9
2022-10-22T09:17:23.013Z,99.9
2022-10-22T09:19:25.038Z,99.9
2022-10-22T09:21:27.007Z,99.9
2022-10-22T09:23:29.018Z,99.9
2022-10-22T09:25:31.043Z,99.9
2022-10-22T09:27:36.086Z,99.9
2022-10-22T09:32:43.239Z,99.9
2022-10-22T09:34:44.665Z,99.9
2022-10-22T09:36:46.656Z,99.9
2022-10-22T09:38:48.653Z,99.9
2022-10-22T09:40:53.714Z,99.9
2022-10-22T09:42:55.716Z,99.9
2022-10-22T09:44:57.739Z,99.9
2022-10-22T09:46:59.737Z,99.9
2022-10-22T09:49:01.761Z,99.9
2022-10-22T09:51:03.828Z,99.9
2022-10-22T09:53:05.755Z,99.9
2022-10-22T09:55:10.851Z,99.9
2022-10-22T09:57:12.826Z,99.9
2022-10-22T09:59:14.848Z,99.9
2022-10-22T10:01:16.832Z,99.9
2022-10-22T10:03:18.899Z,99.9
2022-10-22T10:05:20.835Z,99.9
2022-10-22T10:07:22.869Z,99.9
2022-10-22T10:09:27.936Z,99.9
2022-10-22T10:11:29.919Z,99.9
2022-10-22T10:13:31.936Z,99.9
2022-10-22T10:15:33.933Z,99.9
2022-10-22T10:17:35.906Z,99.9
2022-10-22T10:21:39.901Z,99.9
2022-10-22T10:23:44.964Z,99.9
2022-10-22T10:25:46.963Z,99.9
2022-10-22T10:27:48.960Z,99.9
2022-10-22T10:28:51.496Z,99.9
2022-10-22T10:30:53.495Z,99.9
2022-10-22T10:32:55.480Z,99.9
2022-10-22T10:34:57.503Z,99.9
2022-10-22T10:37:02.559Z,99.9
2022-10-22T10:39:04.552Z,99.9
2022-10-22T10:41:06.539Z,99.9
2022-10-22T10:43:08.535Z,99.9
2022-10-22T10:45:10.517Z,99.9
2022-10-22T10:47:12.514Z,99.9
2022-10-22T10:49:14.503Z,99.9
2022-10-22T10:51:19.603Z,99.9
2022-10-22T10:53:21.556Z,99.9
2022-10-22T10:55:23.550Z,99.9
2022-10-22T10:57:25.538Z,99.9
2022-10-22T10:59:27.510Z,99.9
2022-10-22T11:01:29.542Z,99.9
2022-10-22T11:03:31.507Z,99.9
2022-10-22T11:05:36.565Z,99.9
2022-10-22T11:07:38.542Z,99.9
2022-10-22T11:11:42.505Z,99.9
2022-10-22T11:13:44.499Z,99.9
2022-10-22T11:17:48.462Z,99.9
2022-10-22T11:19:57.859Z,99.6
2022-10-22T11:21:55.515Z,91.5
2022-10-22T11:23:57.503Z,74.8
2022-10-22T11:26:20.166Z,76.1
2022-10-22T11:28:22.143Z,77.4
2022-10-22T11:30:24.132Z,87.7
2022-10-22T11:34:33.841Z,76.7
2022-10-22T11:36:33.150Z,76.4
2022-10-22T11:40:37.091Z,76.8
2022-10-22T11:44:41.043Z,71.9
2022-10-22T11:48:48.082Z,70.7
2022-10-22T11:50:50.056Z,71.9
2022-10-22T11:52:52.008Z,72.2
2022-10-22T11:54:53.970Z,82.2
2022-10-22T11:56:55.940Z,71.7
2022-10-22T12:01:02.952Z,91.3
2022-10-22T12:07:08.803Z,99.7
2022-10-22T12:09:10.874Z,80.6
2022-10-22T12:11:12.715Z,68.1
2022-10-22T12:17:21.674Z,66.4
2022-10-22T12:19:23.636Z,64.5
2022-10-22T12:20:26.139Z,67.1
2022-10-22T12:22:28.086Z,67.3
2022-10-22T12:24:30.048Z,74.6
2022-10-22T12:26:32.002Z,88.7
2022-10-22T12:28:37.052Z,99
2022-10-22T12:30:38.975Z,99.1
2022-10-22T12:34:42.930Z,72
2022-10-22T12:36:44.821Z,77.4
2022-10-22T12:38:46.780Z,87.8
2022-10-22T12:40:49.154Z,89.3
2022-10-22T12:44:55.762Z,90.1
2022-10-22T12:46:57.675Z,94.9
2022-10-22T12:48:59.638Z,96.2
2022-10-22T12:51:01.615Z,97.4
2022-10-22T12:53:03.706Z,97.3
2022-10-22T12:55:05.540Z,95.9
2022-10-22T12:57:10.579Z,94.1
2022-10-22T12:59:12.537Z,93.8
2022-10-22T13:01:14.542Z,98.8
2022-10-22T13:03:16.651Z,94.2
2022-10-22T13:05:18.437Z,93.6
2022-10-22T13:07:22.259Z,92.7
2022-10-22T13:09:25.271Z,96.2
2022-10-22T13:11:27.437Z,93.2
2022-10-22T13:13:29.554Z,91.8
2022-10-22T13:15:31.401Z,80.7
2022-10-22T13:16:33.932Z,79.8
2022-10-22T13:18:36.032Z,76.4
2022-10-22T13:20:37.862Z,72.7
2022-10-22T13:22:39.842Z,65.4
2022-10-22T13:24:44.941Z,65.2
2022-10-22T13:26:46.852Z,64.9
2022-10-22T13:28:48.964Z,64.8
2022-10-22T13:30:50.818Z,64.4
2022-10-22T13:32:52.788Z,64.1
2022-10-22T13:34:54.747Z,63.1
2022-10-22T13:36:56.706Z,61
2022-10-22T13:39:01.895Z,60.4
2022-10-22T13:41:03.723Z,60.1
2022-10-22T13:43:05.687Z,61.3
2022-10-22T13:45:07.659Z,61.6
2022-10-22T13:47:09.618Z,61.7
2022-10-22T13:49:11.580Z,61.8
2022-10-22T13:51:13.523Z,61
2022-10-22T13:53:18.992Z,60.6
2022-10-22T13:55:20.551Z,60.5
2022-10-22T13:57:22.516Z,60.6
2022-10-22T13:59:24.477Z,60.3
2022-10-22T14:01:26.402Z,60.3
2022-10-22T14:03:28.380Z,60.2
2022-10-22T14:05:30.328Z,61.6
2022-10-22T14:07:35.378Z,73.9
2022-10-22T14:09:37.349Z,75.1
2022-10-22T14:11:39.283Z,82.4
2022-10-22T14:12:41.804Z,74.8
2022-10-22T14:14:43.880Z,73
2022-10-22T14:16:45.741Z,80.7
2022-10-22T14:18:47.721Z,90
2022-10-22T14:20:52.775Z,90.7
2022-10-22T14:22:54.755Z,92.6
2022-10-22T14:24:56.725Z,76.6
2022-10-22T14:26:58.691Z,68.6
2022-10-22T14:29:11.674Z,68
2022-10-22T14:31:02.646Z,68
2022-10-22T14:33:04.621Z,67.3
2022-10-22T14:35:09.696Z,64.4
2022-10-22T14:37:11.671Z,64.3
2022-10-22T14:39:13.676Z,66.2
2022-10-22T14:41:15.608Z,70.5
2022-10-22T14:43:17.592Z,71.2
2022-10-22T14:45:19.568Z,73
2022-10-22T14:47:21.524Z,75.4
2022-10-22T14:49:28.095Z,78.3
2022-10-22T14:51:30.062Z,80.5
2022-10-22T14:53:32.031Z,80.4
2022-10-22T14:55:34.016Z,79.1
2022-10-22T14:57:35.991Z,83.9
2022-10-22T14:59:37.972Z,82.9
2022-10-22T15:01:39.946Z,80.7
2022-10-22T15:03:45.021Z,90.4
2022-10-22T15:05:46.978Z,91.2
2022-10-22T15:07:48.969Z,94.7
2022-10-22T15:10:05.815Z,98.1
2022-10-22T15:12:07.769Z,98.4
2022-10-22T15:24:22.757Z,99.9
2022-10-22T15:26:24.749Z,99.9
2022-10-22T15:28:26.725Z,99.9
2022-10-22T15:32:33.782Z,99.9
2022-10-22T15:34:35.765Z,99.9
2022-10-22T15:36:37.768Z,99.9
2022-10-22T15:38:39.751Z,99.9
2022-10-22T15:40:41.768Z,99.9
2022-10-22T15:42:43.968Z,99.9
2022-10-22T15:44:48.801Z,99.9
2022-10-22T15:48:52.797Z,99.9
2022-10-22T15:50:54.815Z,99.9
2022-10-22T15:52:56.815Z,99.9
2022-10-22T15:54:58.809Z,99.9
2022-10-22T15:57:00.819Z,99.9
2022-10-22T15:59:05.892Z,99.9
2022-10-22T16:01:07.952Z,99.9
2022-10-22T16:03:09.897Z,99.9
2022-10-22T16:06:14.449Z,99.9
2022-10-22T16:08:16.426Z,99.9
2022-10-22T16:10:18.437Z,99.9
2022-10-22T16:12:23.539Z,99.9
2022-10-22T16:14:25.532Z,99.9
2022-10-22T16:18:29.568Z,99.9
2022-10-22T16:20:31.587Z,99.9
2022-10-22T16:22:33.629Z,99.9
2022-10-22T16:24:35.655Z,99.9
2022-10-22T16:28:42.750Z,99.9
2022-10-22T16:30:44.784Z,99.9
2022-10-22T16:32:46.813Z,99.9
2022-10-22T16:34:48.849Z,99.9
2022-10-22T16:38:52.848Z,99.9
2022-10-22T16:40:57.952Z,99.9
2022-10-22T16:42:59.978Z,99.9
2022-10-22T16:45:02.057Z,99.9
2022-10-22T16:47:04.010Z,99.9
2022-10-22T16:49:06.053Z,99.9
2022-10-22T16:51:08.094Z,99.9
2022-10-22T16:53:10.130Z,99.9
2022-10-22T16:55:15.193Z,99.9
2022-10-22T16:57:17.225Z,99.9
2022-10-22T16:59:19.241Z,99.9
2022-10-22T17:00:21.808Z,99.9
2022-10-22T17:02:23.828Z,99.9
2022-10-22T17:04:25.837Z,99.9
2022-10-22T17:06:27.883Z,99.9
2022-10-22T17:08:33.055Z,99.9
2022-10-22T17:10:35.023Z,99.9
2022-10-22T17:12:37.035Z,99.9
2022-10-22T17:14:39.079Z,99.9
2022-10-22T17:16:41.121Z,99.9
2022-10-22T17:18:43.279Z,99.9
2022-10-22T17:22:50.276Z,99.9
2022-10-22T17:24:52.296Z,99.9
2022-10-22T17:26:54.413Z,99.9
2022-10-22T17:28:56.375Z,99.9
2022-10-22T17:30:58.397Z,99.9
2022-10-22T17:33:00.439Z,99.9
2022-10-22T17:35:02.498Z,99.9
2022-10-22T17:37:07.551Z,99.9
2022-10-22T17:41:14.543Z,99.9
2022-10-22T17:47:17.711Z,99.9
2022-10-22T17:49:19.724Z,99.9
2022-10-22T17:51:24.810Z,99.9
2022-10-22T17:53:26.862Z,99.9
2022-10-22T17:56:31.418Z,99.9
2022-10-22T17:58:33.470Z,99.9
2022-10-22T18:00:35.495Z,99.9
2022-10-22T18:02:37.519Z,99.9
2022-10-22T18:04:42.635Z,99.9
2022-10-22T18:06:44.782Z,99.9
2022-10-22T18:08:46.877Z,99.9
2022-10-22T18:10:48.718Z,99.9
2022-10-22T18:12:50.726Z,99.9
2022-10-22T18:14:52.764Z,99.9
2022-10-22T18:16:54.801Z,99.9
2022-10-22T18:18:59.891Z,99.9
2022-10-22T18:21:01.817Z,99.9
2022-10-22T18:23:03.835Z,99.9
2022-10-22T18:25:05.884Z,99.9
2022-10-22T18:27:07.900Z,99.9
2022-10-22T18:29:09.926Z,99.9
2022-10-22T18:35:19.103Z,99.9
2022-10-22T18:37:21.327Z,99.9
2022-10-22T18:45:29.240Z,99.9
2022-10-22T18:54:05.901Z,99.9
2022-10-22T18:56:03.055Z,99.9
2022-10-22T18:58:05.064Z,99.9
2022-10-22T19:00:10.168Z,99.9
2022-10-22T19:02:12.187Z,99.9
2022-10-22T19:04:14.201Z,99.9
2022-10-22T19:06:16.223Z,99.9
2022-10-22T19:08:18.237Z,99.9
2022-10-22T19:10:20.285Z,99.9
2022-10-22T19:12:22.311Z,99.9
2022-10-22T19:14:27.402Z,99.9
2022-10-22T19:16:29.436Z,99.9
2022-10-22T19:18:31.468Z,99.9
2022-10-22T19:20:33.492Z,99.9
2022-10-22T19:22:35.507Z,99.9
2022-10-22T19:24:37.528Z,99.9
2022-10-22T19:26:39.601Z,99.9
2022-10-22T19:28:44.662Z,99.9
2022-10-22T19:30:46.687Z,99.9
2022-10-22T19:34:50.753Z,99.9
2022-10-22T19:36:52.784Z,99.9
2022-10-22T19:40:56.824Z,99.9
2022-10-22T19:43:01.911Z,99.9
2022-10-22T19:45:03.937Z,99.9
2022-10-22T19:47:05.969Z,99.9
2022-10-22T19:48:08.521Z,99.9
2022-10-22T19:50:10.529Z,99.9
2022-10-22T19:52:12.568Z,99.9
2022-10-22T19:54:14.725Z,99.9
2022-10-22T19:56:19.691Z,99.9
2022-10-22T19:58:21.705Z,99.9
2022-10-22T20:00:23.715Z,99.9
2022-10-22T20:02:25.763Z,99.9
2022-10-22T20:04:27.929Z,99.9
2022-10-22T20:06:29.808Z,99.9
2022-10-22T20:08:31.952Z,99.9
2022-10-22T20:10:36.923Z,99.9
2022-10-22T20:12:38.937Z,99.9
2022-10-22T20:14:40.968Z,99.9
2022-10-22T20:16:42.985Z,99.9
2022-10-22T20:22:49.063Z,99.9
2022-10-22T20:24:54.158Z,99.9
2022-10-22T20:31:00.235Z,99.9
2022-10-22T20:33:02.252Z,99.9
2022-10-22T20:35:04.265Z,99.9
2022-10-22T20:37:06.311Z,99.9
2022-10-22T20:39:12.932Z,99.9
2022-10-22T20:41:14.895Z,99.9
2022-10-22T20:43:16.916Z,99.9
2022-10-22T20:44:19.455Z,99.9
2022-10-22T20:46:21.500Z,99.9
2022-10-22T20:48:23.542Z,99.9
2022-10-22T20:50:25.563Z,99.9
2022-10-22T20:54:32.674Z,99.9
2022-10-22T20:56:34.693Z,99.9
2022-10-22T20:58:36.721Z,99.9
2022-10-22T21:00:38.755Z,99.9
2022-10-22T21:02:40.770Z,99.9
2022-10-22T21:04:45.552Z,99.9
2022-10-22T21:06:47.866Z,99.9
2022-10-22T21:08:50.032Z,99.9
2022-10-22T21:10:51.969Z,99.9
2022-10-22T21:12:53.977Z,99.9
2022-10-22T21:14:56.002Z,99.9
2022-10-22T21:16:58.029Z,99.9
2022-10-22T21:19:00.059Z,99.9
2022-10-22T21:25:09.195Z,99.9
2022-10-22T21:27:11.200Z,99.9
2022-10-22T21:29:13.190Z,99.9
2022-10-22T21:35:22.319Z,99.9
2022-10-22T21:39:26.367Z,99.9
2022-10-22T21:40:28.939Z,99.9
2022-10-22T21:42:30.962Z,99.9
2022-10-22T21:44:32.955Z,99.9
2022-10-22T21:46:34.978Z,99.9
2022-10-22T21:48:40.082Z,99.9
2022-10-22T21:50:42.103Z,99.9
2022-10-22T21:52:44.126Z,99.9
2022-10-22T21:54:46.130Z,99.9
2022-10-22T21:56:48.146Z,99.9
2022-10-22T21:58:50.162Z,99.9
2022-10-22T22:00:52.275Z,99.9
2022-10-22T22:02:57.296Z,99.9
2022-10-22T22:04:59.295Z,99.9
2022-10-22T22:07:01.330Z,99.9
2022-10-22T22:09:03.454Z,99.9
2022-10-22T22:15:09.451Z,99.9
2022-10-22T22:17:14.528Z,99.9
2022-10-22T22:19:16.535Z,99.9
2022-10-22T22:21:18.547Z,99.9
2022-10-22T22:23:20.588Z,99.9
2022-10-22T22:25:22.583Z,99.9
2022-10-22T22:27:24.623Z,99.9
2022-10-22T22:29:26.650Z,99.9
2022-10-22T22:35:35.867Z,99.9
2022-10-22T22:37:58.729Z,99.9
2022-10-22T22:40:00.800Z,99.9
2022-10-22T22:42:02.802Z,99.9
2022-10-22T22:44:07.883Z,99.9
2022-10-22T22:46:09.906Z,99.9
2022-10-22T22:48:11.950Z,99.9
2022-10-22T22:52:16.110Z,99.9
2022-10-22T22:54:18.035Z,99.9
2022-10-22T22:56:20.073Z,99.9
2022-10-22T22:58:25.133Z,99.9
2022-10-22T23:00:27.203Z,99.9
2022-10-22T23:02:29.425Z,99.9
2022-10-22T23:04:31.235Z,99.9
2022-10-22T23:06:33.252Z,99.9
2022-10-22T23:08:35.351Z,99.9
2022-10-22T23:10:37.308Z,99.9
2022-10-22T23:12:42.560Z,99.9
2022-10-22T23:14:44.399Z,99.9
2022-10-22T23:16:46.437Z,99.9
2022-10-22T23:18:48.469Z,99.9
2022-10-22T23:20:50.480Z,99.9
2022-10-22T23:22:52.505Z,99.9
2022-10-22T23:24:54.521Z,99.9
2022-10-22T23:26:59.588Z,99.9
2022-10-22T23:29:01.616Z,99.9
2022-10-22T23:31:03.640Z,99.9
2022-10-22T23:32:06.180Z,99.9
2022-10-22T23:34:08.327Z,99.9
2022-10-22T23:36:10.230Z,99.9
2022-10-22T23:38:12.230Z,99.9
2022-10-22T23:40:17.332Z,99.9
2022-10-22T23:42:19.349Z,99.9
2022-10-22T23:44:21.377Z,99.9
2022-10-22T23:46:23.389Z,99.9
2022-10-22T23:48:25.408Z,99.9
2022-10-22T23:50:27.430Z,99.9
2022-10-22T23:52:29.462Z,99.9
2022-10-22T23:54:34.545Z,99.9
2022-10-22T23:56:36.573Z,99.9
2022-10-22T23:58:38.573Z,99.9
